createdAt,value
2022-12-06T00:01:32.511Z,54.81
2022-12-06T00:04:02.037Z,55.05
2022-12-06T00:06:30.760Z,53.91
2022-12-06T00:08:58.132Z,53.67
2022-12-06T00:11:27.517Z,53.90
2022-12-06T00:13:56.201Z,53.58
2022-12-06T00:16:24.128Z,54.10
2022-12-06T00:18:51.727Z,54.25
2022-12-06T00:21:21.184Z,54.14
2022-12-06T00:23:51.419Z,53.95
2022-12-06T00:26:19.040Z,54.47
2022-12-06T00:28:46.031Z,54.13
2022-12-06T00:31:16.163Z,54.64
2022-12-06T00:33:43.021Z,54.58
2022-12-06T00:36:30.276Z,54.75
2022-12-06T00:39:02.286Z,55.08
2022-12-06T00:41:28.981Z,55.75
2022-12-06T00:43:55.776Z,55.06
2022-12-06T00:46:28.413Z,55.18
2022-12-06T00:48:56.728Z,54.37
2022-12-06T00:51:25.213Z,56.25
2022-12-06T00:53:52.562Z,56.34
2022-12-06T00:56:19.573Z,55.93
2022-12-06T00:58:46.890Z,56.00
2022-12-06T01:01:20.193Z,56.31
2022-12-06T01:03:51.320Z,56.02
2022-12-06T01:06:19.037Z,55.77
2022-12-06T01:08:45.637Z,56.40
2022-12-06T01:11:15.288Z,56.32
2022-12-06T01:13:42.805Z,56.67
2022-12-06T01:16:14.024Z,56.81
2022-12-06T01:18:42.182Z,56.71
2022-12-06T01:21:14.403Z,56.56
2022-12-06T01:23:41.216Z,57.42
2022-12-06T01:26:14.652Z,56.79
2022-12-06T01:28:41.167Z,57.09
2022-12-06T01:31:08.171Z,57.20
2022-12-06T01:33:35.182Z,56.81
2022-12-06T01:36:02.217Z,56.83
2022-12-06T01:38:28.896Z,56.82
2022-12-06T01:40:55.817Z,56.64
2022-12-06T01:43:34.860Z,56.86
2022-12-06T01:46:24.130Z,57.37
2022-12-06T01:48:55.411Z,56.56
2022-12-06T01:51:22.448Z,56.70
2022-12-06T01:53:52.176Z,56.20
2022-12-06T01:56:19.909Z,56.18
2022-12-06T01:58:49.863Z,56.55
2022-12-06T02:01:16.449Z,55.96
2022-12-06T02:03:44.603Z,56.46
2022-12-06T02:06:11.436Z,57.23
2022-12-06T02:08:39.322Z,56.80
2022-12-06T02:11:06.115Z,57.73
2022-12-06T02:13:34.811Z,57.04
2022-12-06T02:16:13.691Z,57.26
2022-12-06T02:19:31.150Z,57.33
2022-12-06T02:22:11.069Z,56.64
2022-12-06T02:24:57.336Z,56.98
2022-12-06T02:27:29.973Z,57.09
2022-12-06T02:30:18.776Z,57.02
2022-12-06T02:32:57.103Z,57.67
2022-12-06T02:35:44.013Z,57.77
2022-12-06T02:38:35.120Z,57.26
2022-12-06T02:41:08.332Z,58.04
2022-12-06T02:43:43.826Z,58.08
2022-12-06T02:46:13.364Z,57.96
2022-12-06T02:48:41.888Z,57.80
2022-12-06T02:51:14.064Z,58.03
2022-12-06T02:53:46.764Z,57.26
2022-12-06T02:56:16.754Z,57.57
2022-12-06T02:58:43.845Z,58.01
2022-12-06T03:01:14.550Z,58.04
2022-12-06T03:04:18.290Z,58.82
2022-12-06T03:07:08.401Z,58.06
2022-12-06T03:10:09.034Z,57.81
2022-12-06T03:13:09.664Z,58.09
2022-12-06T03:16:02.108Z,58.33
2022-12-06T03:18:42.099Z,57.92
2022-12-06T03:21:14.016Z,57.82
2022-12-06T03:23:44.248Z,57.56
2022-12-06T03:26:16.567Z,57.33
2022-12-06T03:28:46.893Z,56.61
2022-12-06T03:31:14.580Z,57.05
2022-12-06T03:33:49.645Z,57.07
2022-12-06T03:36:18.450Z,57.26
2022-12-06T03:39:00.729Z,56.52
2022-12-06T03:41:33.472Z,56.87
2022-12-06T03:44:00.360Z,56.70
2022-12-06T03:46:34.121Z,56.82
2022-12-06T03:49:14.305Z,57.00
2022-12-06T03:51:43.171Z,56.99
2022-12-06T03:54:10.936Z,56.92
2022-12-06T03:56:38.659Z,56.43
2022-12-06T03:59:10.581Z,55.92
2022-12-06T04:01:38.105Z,56.25
2022-12-06T04:04:05.379Z,56.59
2022-12-06T04:06:32.011Z,56.94
2022-12-06T04:09:18.525Z,57.01
2022-12-06T04:11:45.710Z,56.30
2022-12-06T04:14:12.423Z,56.51
2022-12-06T04:16:57.380Z,56.69
2022-12-06T04:19:24.038Z,57.01
2022-12-06T04:22:09.104Z,57.27
2022-12-06T04:24:35.883Z,57.01
2022-12-06T04:27:22.413Z,57.46
2022-12-06T04:30:07.706Z,57.14
2022-12-06T04:32:52.924Z,57.22
2022-12-06T04:35:38.233Z,57.19
2022-12-06T04:38:23.546Z,56.90
2022-12-06T04:40:50.481Z,56.15
2022-12-06T04:43:35.561Z,56.29
2022-12-06T04:46:02.202Z,56.43
2022-12-06T04:48:28.724Z,57.21
2022-12-06T04:50:55.269Z,57.19
2022-12-06T04:53:21.857Z,56.95
2022-12-06T04:55:49.776Z,56.23
2022-12-06T04:58:16.388Z,56.01
2022-12-06T05:00:47.734Z,55.78
2022-12-06T05:03:15.166Z,56.36
2022-12-06T05:05:42.721Z,55.99
2022-12-06T05:08:09.945Z,56.51
2022-12-06T05:10:37.032Z,56.04
2022-12-06T05:13:03.969Z,56.71
2022-12-06T05:15:30.957Z,56.93
2022-12-06T05:17:57.713Z,56.70
2022-12-06T05:20:24.265Z,57.57
2022-12-06T05:22:51.030Z,58.14
2022-12-06T05:25:17.650Z,58.25
2022-12-06T05:27:44.936Z,58.51
2022-12-06T05:30:12.477Z,58.91
2022-12-06T05:32:40.453Z,59.02
2022-12-06T05:35:08.882Z,59.12
2022-12-06T05:37:36.494Z,59.44
2022-12-06T05:40:04.038Z,59.89
2022-12-06T05:42:30.695Z,59.66
2022-12-06T05:44:57.241Z,59.67
2022-12-06T05:47:23.760Z,59.47
2022-12-06T05:49:51.125Z,60.29
2022-12-06T05:52:17.664Z,59.97
2022-12-06T05:54:44.204Z,60.56
2022-12-06T05:57:10.774Z,60.11
2022-12-06T05:59:37.325Z,60.60
2022-12-06T06:02:04.084Z,60.58
2022-12-06T06:04:30.773Z,60.11
2022-12-06T06:06:57.412Z,60.63
2022-12-06T06:09:27.346Z,61.14
2022-12-06T06:11:54.758Z,60.41
2022-12-06T06:14:21.357Z,59.78
2022-12-06T06:16:47.977Z,60.80
2022-12-06T06:19:14.562Z,61.06
2022-12-06T06:21:41.707Z,60.65
2022-12-06T06:24:08.367Z,62.04
2022-12-06T06:26:34.999Z,61.93
2022-12-06T06:29:01.485Z,62.27
2022-12-06T06:31:28.260Z,62.69
2022-12-06T06:33:54.790Z,62.67
2022-12-06T06:36:21.690Z,63.54
2022-12-06T06:38:48.210Z,63.75
2022-12-06T06:41:14.845Z,62.14
2022-12-06T06:43:41.372Z,63.06
2022-12-06T06:46:08.027Z,63.29
2022-12-06T06:48:37.920Z,63.37
2022-12-06T06:51:07.653Z,63.17
2022-12-06T06:53:34.387Z,62.26
2022-12-06T06:56:00.966Z,62.88
2022-12-06T06:58:27.503Z,62.31
2022-12-06T07:00:56.301Z,63.25
2022-12-06T07:03:24.211Z,64.21
2022-12-06T07:05:53.354Z,64.86
2022-12-06T07:08:20.452Z,63.59
2022-12-06T07:10:48.764Z,63.66
2022-12-06T07:13:16.587Z,63.51
2022-12-06T07:15:43.145Z,63.31
2022-12-06T07:18:10.234Z,62.85
2022-12-06T07:20:36.809Z,63.70
2022-12-06T07:23:05.054Z,63.92
2022-12-06T07:25:32.429Z,63.65
2022-12-06T07:27:59.190Z,63.20
2022-12-06T07:30:27.796Z,62.83
2022-12-06T07:32:54.707Z,60.50
2022-12-06T07:35:21.536Z,54.55
2022-12-06T07:37:48.784Z,52.63
2022-12-06T07:40:16.671Z,52.56
2022-12-06T07:43:01.644Z,51.68
2022-12-06T07:45:28.449Z,52.35
2022-12-06T07:47:55.476Z,52.18
2022-12-06T07:50:23.003Z,51.42
2022-12-06T07:52:50.652Z,50.78
2022-12-06T07:55:17.903Z,50.10
2022-12-06T07:57:44.666Z,50.77
2022-12-06T08:00:14.308Z,50.84
2022-12-06T08:02:41.281Z,52.15
2022-12-06T08:05:08.483Z,51.09
2022-12-06T08:07:35.128Z,51.56
2022-12-06T08:10:02.563Z,52.17
2022-12-06T08:12:32.031Z,51.59
2022-12-06T08:14:59.959Z,51.27
2022-12-06T08:17:27.521Z,51.37
2022-12-06T08:19:54.225Z,51.33
2022-12-06T08:22:21.804Z,50.82
2022-12-06T08:24:48.378Z,53.38
2022-12-06T08:27:14.948Z,52.54
2022-12-06T08:29:41.542Z,51.69
2022-12-06T08:32:08.058Z,51.50
2022-12-06T08:34:34.561Z,51.59
2022-12-06T08:37:03.606Z,52.67
2022-12-06T08:39:30.593Z,52.84
2022-12-06T08:42:00.129Z,52.60
2022-12-06T08:44:28.432Z,52.28
2022-12-06T08:46:56.096Z,51.95
2022-12-06T08:49:24.461Z,51.74
2022-12-06T08:51:52.287Z,52.86
2022-12-06T08:54:21.842Z,52.23
2022-12-06T08:56:49.901Z,51.33
2022-12-06T08:59:17.092Z,51.96
2022-12-06T09:01:45.053Z,52.18
2022-12-06T09:04:13.118Z,52.65
2022-12-06T09:06:42.257Z,52.38
2022-12-06T09:09:10.819Z,52.46
2022-12-06T09:11:39.345Z,53.31
2022-12-06T09:14:08.343Z,53.31
2022-12-06T09:16:35.613Z,52.93
2022-12-06T09:19:02.313Z,51.69
2022-12-06T09:21:33.494Z,51.83
2022-12-06T09:24:00.344Z,52.27
2022-12-06T09:26:28.229Z,52.73
2022-12-06T09:28:55.865Z,52.85
2022-12-06T09:31:23.115Z,52.72
2022-12-06T09:33:50.199Z,53.85
2022-12-06T09:36:25.522Z,54.37
2022-12-06T09:39:09.676Z,54.24
2022-12-06T09:42:35.054Z,55.03
2022-12-06T09:45:45.877Z,55.10
2022-12-06T09:48:49.738Z,54.53
2022-12-06T09:51:37.496Z,53.06
2022-12-06T09:54:09.675Z,52.85
2022-12-06T09:57:04.532Z,52.84
2022-12-06T09:59:39.755Z,52.40
2022-12-06T10:02:22.287Z,52.18
2022-12-06T10:05:26.667Z,51.83
2022-12-06T10:08:19.567Z,51.67
2022-12-06T10:10:52.110Z,51.66
2022-12-06T10:13:40.682Z,51.96
2022-12-06T10:16:35.062Z,49.42
2022-12-06T10:19:36.597Z,51.82
2022-12-06T10:22:45.281Z,52.48
2022-12-06T10:25:24.786Z,53.23
2022-12-06T10:27:57.336Z,54.29
2022-12-06T10:30:23.937Z,54.59
2022-12-06T10:33:05.331Z,54.48
2022-12-06T10:35:41.173Z,54.70
2022-12-06T10:38:25.111Z,54.96
2022-12-06T10:41:05.037Z,55.42
2022-12-06T10:43:50.276Z,54.92
2022-12-06T10:46:52.095Z,53.72
2022-12-06T10:49:41.614Z,53.76
2022-12-06T10:52:22.983Z,53.54
2022-12-06T10:55:16.357Z,54.39
2022-12-06T10:57:57.518Z,53.40
2022-12-06T11:00:30.978Z,53.03
2022-12-06T11:03:19.113Z,52.32
2022-12-06T11:05:53.002Z,52.39
2022-12-06T11:08:38.194Z,52.43
2022-12-06T11:11:10.372Z,52.55
2022-12-06T11:13:47.949Z,52.71
2022-12-06T11:16:26.565Z,52.26
2022-12-06T11:18:57.743Z,52.35
2022-12-06T11:21:34.388Z,52.57
2022-12-06T11:24:26.562Z,52.12
2022-12-06T11:27:13.649Z,51.85
2022-12-06T11:29:42.007Z,52.00
2022-12-06T11:32:09.224Z,52.59
2022-12-06T11:35:08.241Z,51.99
2022-12-06T11:37:40.109Z,53.03
2022-12-06T11:40:30.210Z,52.18
2022-12-06T11:43:02.048Z,52.75
2022-12-06T11:45:39.607Z,52.53
2022-12-06T11:48:34.201Z,51.59
2022-12-06T11:51:00.941Z,51.57
2022-12-06T11:53:35.478Z,51.69
2022-12-06T11:56:26.477Z,51.30
2022-12-06T11:59:03.795Z,51.27
2022-12-06T12:01:48.468Z,50.89
2022-12-06T12:04:39.239Z,50.71
2022-12-06T12:07:18.167Z,51.81
2022-12-06T12:09:56.525Z,51.55
2022-12-06T12:12:46.685Z,52.04
2022-12-06T12:15:18.923Z,51.41
2022-12-06T12:17:48.781Z,51.42
2022-12-06T12:20:25.852Z,51.07
2022-12-06T12:23:15.524Z,50.83
2022-12-06T12:25:44.936Z,50.31
2022-12-06T12:28:34.038Z,50.68
2022-12-06T12:31:15.537Z,50.47
2022-12-06T12:33:42.043Z,51.09
2022-12-06T12:36:16.919Z,50.93
2022-12-06T12:38:53.571Z,51.79
2022-12-06T12:41:25.908Z,52.08
2022-12-06T12:44:35.822Z,51.26
2022-12-06T12:47:15.274Z,50.77
2022-12-06T12:49:42.017Z,50.88
2022-12-06T12:52:30.672Z,51.58
2022-12-06T12:55:00.848Z,51.13
2022-12-06T12:57:28.114Z,51.28
2022-12-06T12:59:54.959Z,51.37
2022-12-06T13:02:27.667Z,50.91
2022-12-06T13:05:31.273Z,51.32
2022-12-06T13:07:52.376Z,50.82
2022-12-06T13:10:29.935Z,51.12
2022-12-06T13:13:01.714Z,51.69
2022-12-06T13:15:36.585Z,51.59
2022-12-06T13:18:21.447Z,51.30
2022-12-06T13:20:50.605Z,51.61
2022-12-06T13:23:23.843Z,51.96
2022-12-06T13:26:16.418Z,52.47
2022-12-06T13:28:48.806Z,51.94
2022-12-06T13:31:18.411Z,51.10
2022-12-06T13:34:00.489Z,51.23
2022-12-06T13:36:32.844Z,51.18
2022-12-06T13:38:59.970Z,51.52
2022-12-06T13:41:54.659Z,51.51
2022-12-06T13:44:52.647Z,50.90
2022-12-06T13:47:28.448Z,51.08
2022-12-06T13:50:00.587Z,51.18
2022-12-06T13:52:42.253Z,50.63
2022-12-06T13:55:23.875Z,50.75
2022-12-06T13:57:59.634Z,50.86
2022-12-06T14:00:29.452Z,50.38
2022-12-06T14:02:57.175Z,50.06
2022-12-06T14:06:01.235Z,50.97
2022-12-06T14:08:33.541Z,50.28
2022-12-06T14:11:25.902Z,49.60
2022-12-06T14:13:55.156Z,49.95
2022-12-06T14:16:33.219Z,49.98
2022-12-06T14:19:00.385Z,49.42
2022-12-06T14:21:31.053Z,49.48
2022-12-06T14:23:57.735Z,49.28
2022-12-06T14:26:27.536Z,49.97
2022-12-06T14:28:57.069Z,49.64
2022-12-06T14:31:38.249Z,48.93
2022-12-06T14:34:05.163Z,49.24
2022-12-06T14:36:34.900Z,49.30
2022-12-06T14:39:17.705Z,49.06
2022-12-06T14:42:17.337Z,48.66
2022-12-06T14:44:50.321Z,48.70
2022-12-06T14:47:19.592Z,49.33
2022-12-06T14:50:13.343Z,49.34
2022-12-06T14:53:00.559Z,48.64
2022-12-06T14:55:29.969Z,48.93
2022-12-06T14:57:59.541Z,48.55
2022-12-06T15:00:34.600Z,48.73
2022-12-06T15:03:07.667Z,48.20
2022-12-06T15:05:51.914Z,48.12
2022-12-06T15:08:33.152Z,48.21
2022-12-06T15:11:13.218Z,48.54
2022-12-06T15:13:40.101Z,48.68
2022-12-06T15:16:09.599Z,48.25
2022-12-06T15:18:58.151Z,48.58
2022-12-06T15:21:24.838Z,48.16
2022-12-06T15:23:56.063Z,48.07
2022-12-06T15:26:24.771Z,48.50
2022-12-06T15:28:52.013Z,48.62
2022-12-06T15:31:24.333Z,48.38
2022-12-06T15:33:51.006Z,48.26
2022-12-06T15:36:20.794Z,47.99
2022-12-06T15:38:48.006Z,48.00
2022-12-06T15:41:20.962Z,47.81
2022-12-06T15:43:48.465Z,47.61
2022-12-06T15:46:26.381Z,47.50
2022-12-06T15:48:53.984Z,47.28
2022-12-06T15:51:24.834Z,47.61
2022-12-06T15:53:51.895Z,47.68
2022-12-06T15:56:21.565Z,47.64
2022-12-06T15:58:49.035Z,47.68
2022-12-06T16:01:24.253Z,47.13
2022-12-06T16:03:54.035Z,47.14
2022-12-06T16:06:22.676Z,47.23
2022-12-06T16:08:49.309Z,46.65
2022-12-06T16:11:20.821Z,46.92
2022-12-06T16:13:48.059Z,46.96
2022-12-06T16:16:16.420Z,46.79
2022-12-06T16:18:43.299Z,46.51
2022-12-06T16:21:19.292Z,46.91
2022-12-06T16:24:16.457Z,46.95
2022-12-06T16:26:45.014Z,46.76
2022-12-06T16:29:18.970Z,46.56
2022-12-06T16:31:46.031Z,46.77
2022-12-06T16:34:13.655Z,46.55
2022-12-06T16:37:02.774Z,46.73
2022-12-06T16:39:31.966Z,46.69
2022-12-06T16:41:58.588Z,46.66
2022-12-06T16:44:25.287Z,46.99
2022-12-06T16:46:52.720Z,46.56
2022-12-06T16:52:12.299Z,47.28
2022-12-06T16:54:41.213Z,47.04
2022-12-06T16:57:10.517Z,47.29
2022-12-06T16:59:37.101Z,47.38
2022-12-06T17:02:07.227Z,47.21
2022-12-06T17:04:38.165Z,47.53
2022-12-06T17:07:05.117Z,47.31
2022-12-06T17:09:31.705Z,47.54
2022-12-06T17:12:06.232Z,47.82
2022-12-06T17:14:35.852Z,47.87
2022-12-06T17:17:04.096Z,47.66
2022-12-06T17:19:32.995Z,47.88
2022-12-06T17:22:02.160Z,47.82
2022-12-06T17:24:28.936Z,47.56
2022-12-06T17:26:56.386Z,47.69
2022-12-06T17:29:23.674Z,47.62
2022-12-06T17:31:51.325Z,47.28
2022-12-06T17:34:19.293Z,47.46
2022-12-06T17:36:46.925Z,47.81
2022-12-06T17:39:16.440Z,47.81
2022-12-06T17:42:02.252Z,47.66
2022-12-06T17:44:29.531Z,48.27
2022-12-06T17:46:56.090Z,47.95
2022-12-06T17:49:25.089Z,47.94
2022-12-06T17:51:52.061Z,48.00
2022-12-06T17:54:19.579Z,48.06
2022-12-06T17:56:48.330Z,48.01
2022-12-06T17:59:20.264Z,47.85
2022-12-06T18:02:14.265Z,48.01
2022-12-06T18:04:34.959Z,47.74
2022-12-06T18:07:01.821Z,47.80
2022-12-06T18:09:28.359Z,48.13
2022-12-06T18:11:55.654Z,48.11
2022-12-06T18:14:22.898Z,49.07
2022-12-06T18:16:49.657Z,48.23
2022-12-06T18:19:21.531Z,48.24
2022-12-06T18:21:49.169Z,48.74
2022-12-06T18:24:22.727Z,48.76
2022-12-06T18:26:51.412Z,48.28
2022-12-06T18:29:21.240Z,48.62
2022-12-06T18:31:48.358Z,48.64
2022-12-06T18:34:15.481Z,48.86
2022-12-06T18:39:30.797Z,49.07
2022-12-06T18:41:57.603Z,48.94
2022-12-06T18:44:24.769Z,49.02
2022-12-06T18:46:51.906Z,49.02
2022-12-06T18:49:18.671Z,48.92
2022-12-06T18:51:45.404Z,49.30
2022-12-06T18:54:13.808Z,49.41
2022-12-06T18:56:40.815Z,49.68
2022-12-06T18:59:08.573Z,49.56
2022-12-06T19:01:38.093Z,49.33
2022-12-06T19:04:07.195Z,49.86
2022-12-06T19:06:36.854Z,50.07
2022-12-06T19:09:09.995Z,50.26
2022-12-06T19:11:39.150Z,50.43
2022-12-06T19:14:06.873Z,49.88
2022-12-06T19:16:39.972Z,50.55
2022-12-06T19:19:15.871Z,50.46
2022-12-06T19:21:43.808Z,50.69
2022-12-06T19:24:12.723Z,50.78
2022-12-06T19:26:39.462Z,50.60
2022-12-06T19:29:06.584Z,50.66
2022-12-06T19:31:33.264Z,50.64
2022-12-06T19:34:00.463Z,50.63
2022-12-06T19:36:28.991Z,50.92
2022-12-06T19:39:01.536Z,50.73
2022-12-06T19:41:28.993Z,51.00
2022-12-06T19:44:14.313Z,50.45
2022-12-06T19:46:42.612Z,50.08
2022-12-06T19:49:12.098Z,50.22
2022-12-06T19:51:40.630Z,50.30
2022-12-06T19:54:08.870Z,50.77
2022-12-06T19:56:35.785Z,50.76
2022-12-06T19:59:11.409Z,50.70
2022-12-06T20:01:40.151Z,50.52
2022-12-06T20:04:07.240Z,50.52
2022-12-06T20:06:34.966Z,50.38
2022-12-06T20:09:01.629Z,51.45
2022-12-06T20:11:47.265Z,51.35
2022-12-06T20:14:18.522Z,51.29
2022-12-06T20:16:45.822Z,50.88
2022-12-06T20:19:15.660Z,50.79
2022-12-06T20:21:43.456Z,50.65
2022-12-06T20:24:15.865Z,50.85
2022-12-06T20:26:42.805Z,50.45
2022-12-06T20:29:10.338Z,50.15
2022-12-06T20:31:36.922Z,50.24
2022-12-06T20:34:08.951Z,50.21
2022-12-06T20:36:38.401Z,50.21
2022-12-06T20:39:05.420Z,50.61
2022-12-06T20:41:33.051Z,50.86
2022-12-06T20:44:01.441Z,50.56
2022-12-06T20:46:30.864Z,50.91
2022-12-06T20:49:02.820Z,50.48
2022-12-06T20:51:30.585Z,50.57
2022-12-06T20:54:00.245Z,51.03
2022-12-06T20:56:30.049Z,50.78
2022-12-06T20:58:59.265Z,51.05
2022-12-06T21:01:28.723Z,51.09
2022-12-06T21:03:55.646Z,51.49
2022-12-06T21:06:24.337Z,52.27
2022-12-06T21:08:52.024Z,51.70
2022-12-06T21:11:23.038Z,51.94
2022-12-06T21:13:56.554Z,52.14
2022-12-06T21:16:28.758Z,52.57
2022-12-06T21:18:58.500Z,52.57
2022-12-06T21:21:28.500Z,52.59
2022-12-06T21:23:55.192Z,53.25
2022-12-06T21:26:21.783Z,55.20
2022-12-06T21:28:48.444Z,53.44
2022-12-06T21:31:15.117Z,53.77
2022-12-06T21:33:41.812Z,53.23
2022-12-06T21:36:09.056Z,53.60
2022-12-06T21:38:36.665Z,53.45
2022-12-06T21:41:08.331Z,53.46
2022-12-06T21:43:36.038Z,53.21
2022-12-06T21:46:10.292Z,52.93
2022-12-06T21:48:38.511Z,53.12
2022-12-06T21:51:07.954Z,53.02
2022-12-06T21:53:35.751Z,52.67
2022-12-06T21:56:16.979Z,52.57
2022-12-06T21:58:44.399Z,52.31
2022-12-06T22:01:13.704Z,52.52
2022-12-06T22:03:40.735Z,52.30
2022-12-06T22:06:12.430Z,52.87
2022-12-06T22:08:41.387Z,52.31
2022-12-06T22:11:17.932Z,52.14
2022-12-06T22:13:45.894Z,52.55
2022-12-06T22:16:13.448Z,52.22
2022-12-06T22:18:45.428Z,52.55
2022-12-06T22:21:21.078Z,52.43
2022-12-06T22:23:48.189Z,52.85
2022-12-06T22:26:21.617Z,53.24
2022-12-06T22:28:49.161Z,52.71
2022-12-06T22:31:24.982Z,53.32
2022-12-06T22:33:52.728Z,53.38
2022-12-06T22:36:21.068Z,54.08
2022-12-06T22:38:49.901Z,53.61
2022-12-06T22:41:17.296Z,53.51
2022-12-06T22:43:44.331Z,53.93
2022-12-06T22:46:15.047Z,54.24
2022-12-06T22:48:42.786Z,53.38
2022-12-06T22:51:10.636Z,53.72
2022-12-06T22:53:38.132Z,53.73
2022-12-06T22:56:04.972Z,53.48
2022-12-06T22:58:31.621Z,52.93
2022-12-06T23:00:58.298Z,53.35
2022-12-06T23:03:25.695Z,54.26
2022-12-06T23:05:59.979Z,53.87
2022-12-06T23:08:27.000Z,54.55
2022-12-06T23:11:09.366Z,54.00
2022-12-06T23:13:36.571Z,54.56
2022-12-06T23:16:05.877Z,54.69
2022-12-06T23:18:33.418Z,55.24
2022-12-06T23:21:04.191Z,55.07
2022-12-06T23:23:31.340Z,54.42
2022-12-06T23:26:06.362Z,55.05
2022-12-06T23:28:33.752Z,54.80
2022-12-06T23:31:08.218Z,55.27
2022-12-06T23:33:35.547Z,55.80
2022-12-06T23:36:11.845Z,56.21
2022-12-06T23:38:39.083Z,56.05
2022-12-06T23:41:11.579Z,56.09
2022-12-06T23:43:39.069Z,56.34
2022-12-06T23:46:07.895Z,57.44
2022-12-06T23:48:35.637Z,57.71
2022-12-06T23:51:30.740Z,57.47
2022-12-06T23:53:59.191Z,56.98
2022-12-06T23:56:31.777Z,56.74
2022-12-06T23:58:59.626Z,56.61
